Time;durP1;ratioP1;P1;durP2;ratioP2;P2;SDS_P1;SDS_P2;PMS_P1;PMS_P2;Temp;Humidity;BMP_temperature;BMP_pressure;BME280_temperature;BME280_humidity;BME280_pressure;Samples;Min_cycle;Max_cycle;Signal;HPM_P1;HPM_P2
2022/09/02 00:04:50;;;;;;;;;;;;;;;15.63;65.86;101235.28;12859101;23;19959;-74
2022/09/02 00:09:55;;;;;;;;;;;;;;;15.57;65.87;101230.13;12859555;23;19948;-76
2022/09/02 00:15:00;;;;;;;;;;;;;;;15.45;65.94;101227.72;12872897;23;19920;-72
2022/09/02 00:20:04;;;;;;;;;;;;;;;15.23;67.30;101231.53;12859343;23;19997;-68
2022/09/02 00:25:08;;;;;;;;;;;;;;;15.32;67.19;101240.97;12859622;23;19963;-71
2022/09/02 00:30:13;;;;;;;;;;;;;;;15.31;66.92;101237.50;12872633;23;19954;-71
2022/09/02 00:35:16;;;;;;;;;;;;;;;15.30;66.49;101230.53;12861882;23;19983;-70
2022/09/02 00:40:22;;;;;;;;;;;;;;;15.26;66.97;101235.81;12865953;23;20383;-72
2022/09/02 00:45:25;;;;;;;;;;;;;;;15.17;67.27;101231.59;12880176;23;19994;-69
2022/09/02 00:50:29;;;;;;;;;;;;;;;15.11;67.38;101239.53;12865885;23;20327;-70
2022/09/02 00:55:36;;;;;;;;;;;;;;;15.10;67.38;101253.50;12865700;23;19959;-75
2022/09/02 01:00:41;;;;;;;;;;;;;;;15.04;nan;101248.34;12879892;23;19919;-70
2022/09/02 01:05:45;;;;;;;;;;;;;;;14.90;67.97;101243.31;12866229;23;19987;-74
2022/09/02 01:10:51;;;;;;;;;;;;;;;14.94;68.07;101252.00;12867728;23;19939;-72
2022/09/02 01:15:57;;;;;;;;;;;;;;;14.91;68.06;101241.56;12870514;23;19940;-74
2022/09/02 01:21:00;;;;;;;;;;;;;;;14.86;67.90;101244.25;12869477;23;20315;-74
2022/09/02 01:26:06;;;;;;;;;;;;;;;14.92;68.01;101240.69;12869354;23;19991;-71
2022/09/02 01:31:09;;;;;;;;;;;;;;;14.85;68.76;101241.66;12882787;23;19995;-74
2022/09/02 01:36:13;;;;;;;;;;;;;;;14.97;68.56;101241.47;12869651;23;19974;-73
2022/09/02 01:41:17;;;;;;;;;;;;;;;14.96;68.48;101255.47;12869224;23;20228;-73
2022/09/02 01:46:20;;;;;;;;;;;;;;;14.85;67.98;101241.66;12869032;23;19954;-75
2022/09/02 01:51:23;;;;;;;;;;;;;;;14.88;68.70;101233.75;12869002;23;19950;-73
2022/09/02 01:56:28;;;;;;;;;;;;;;;14.94;68.62;101247.59;12868940;23;19944;-72
2022/09/02 02:01:31;;;;;;;;;;;;;;;14.81;68.48;101242.56;12868804;23;19955;-73
2022/09/02 02:06:34;;;;;;;;;;;;;;;14.74;68.73;101244.41;12868768;23;19944;-70
2022/09/02 02:11:39;;;;;;;;;;;;;;;14.69;68.88;101242.72;12868550;23;19951;-71
2022/09/02 02:16:42;;;;;;;;;;;;;;;14.67;68.57;101244.50;12869122;23;19955;-71
2022/09/02 02:21:45;;;;;;;;;;;;;;;14.59;68.78;101247.22;12867821;23;20280;-71
2022/09/02 02:26:49;;;;;;;;;;;;;;;14.55;69.19;101244.63;12868473;23;19927;-71
2022/09/02 02:31:53;;;;;;;;;;;;;;;14.70;68.32;101237.47;12868158;23;19940;-73
2022/09/02 02:36:56;;;;;;;;;;;;;;;14.71;68.42;101238.34;12867263;23;19954;-74
2022/09/02 02:42:01;;;;;;;;;;;;;;;14.65;68.48;101231.44;12868222;23;20003;-72
2022/09/02 02:47:04;;;;;;;;;;;;;;;14.41;69.79;101241.34;12867927;23;19975;-74
2022/09/02 02:52:07;;;;;;;;;;;;;;;14.31;70.10;101250.16;12868497;23;19946;-73
2022/09/02 02:57:12;;;;;;;;;;;;;;;14.17;70.23;101239.81;12868234;23;19951;-74
2022/09/02 03:02:16;;;;;;;;;;;;;;;14.21;70.47;101240.66;12867851;23;19951;-74
2022/09/02 03:07:19;;;;;;;;;;;;;;;14.32;69.86;101239.72;12867451;23;19992;-74
2022/09/02 03:12:24;;;;;;;;;;;;;;;14.20;70.44;101236.31;12867491;23;20315;-72
2022/09/02 03:17:27;;;;;;;;;;;;;;;14.15;70.77;101246.81;12866947;23;19943;-73
2022/09/02 03:22:30;;;;;;;;;;;;;;;14.03;70.84;101256.53;12867177;23;20009;-72
2022/09/02 03:27:34;;;;;;;;;;;;;;;13.93;71.63;101254.88;12866866;23;19995;-75
2022/09/02 03:32:37;;;;;;;;;;;;;;;13.94;72.04;101262.69;12868217;23;19920;-74
2022/09/02 03:37:41;;;;;;;;;;;;;;;13.96;71.76;101258.31;12866953;23;19951;-71
2022/09/02 03:42:45;;;;;;;;;;;;;;;13.86;72.14;101274.94;12866648;23;19998;-73
2022/09/02 03:47:53;;;;;;;;;;;;;;;13.81;72.36;101267.16;12866758;23;20327;-71
2022/09/02 03:52:56;;;;;;;;;;;;;;;13.76;72.66;101279.38;12880703;23;19920;-71
2022/09/02 03:58:00;;;;;;;;;;;;;;;13.71;72.72;101278.56;12867205;23;19983;-73
2022/09/02 04:03:09;;;;;;;;;;;;;;;13.72;72.83;101282.88;12879157;23;19999;-72
2022/09/02 04:08:13;;;;;;;;;;;;;;;13.60;73.58;101293.41;12866370;23;20268;-70
2022/09/02 04:13:17;;;;;;;;;;;;;;;13.61;73.52;101289.94;12866595;23;20339;-73
2022/09/02 04:18:20;;;;;;;;;;;;;;;13.64;73.35;101292.53;12866591;23;20370;-73
2022/09/02 04:23:24;;;;;;;;;;;;;;;13.58;73.83;101299.53;12866046;23;19959;-72
2022/09/02 04:28:28;;;;;;;;;;;;;;;13.55;74.05;101300.41;12865859;23;19974;-74
2022/09/02 04:33:31;;;;;;;;;;;;;;;13.50;74.57;101302.19;12866335;23;19954;-71
2022/09/02 04:38:35;;;;;;;;;;;;;;;13.52;74.32;101303.03;12865871;23;19930;-72
2022/09/02 04:43:39;;;;;;;;;;;;;;;13.53;74.31;101307.38;12865225;23;20284;-72
2022/09/02 04:48:43;;;;;;;;;;;;;;;13.52;74.88;101308.25;12869950;23;20284;-73
2022/09/02 04:53:47;;;;;;;;;;;;;;;13.72;74.55;101310.72;12870040;23;20371;-72
2022/09/02 04:58:52;;;;;;;;;;;;;;;13.77;74.56;101307.19;12869833;23;19950;-75
2022/09/02 05:03:55;;;;;;;;;;;;;;;13.67;75.74;101304.66;12870852;23;19999;-73
2022/09/02 05:09:00;;;;;;;;;;;;;;;13.80;75.46;101309.75;12869697;23;20311;-72
2022/09/02 05:14:06;;;;;;;;;;;;;;;13.85;75.99;101312.34;12869363;23;19947;-76
2022/09/02 05:19:11;;;;;;;;;;;;;;;13.89;75.85;101307.09;12883647;23;20298;-74
2022/09/02 05:24:16;;;;;;;;;;;;;;;13.94;76.30;101310.53;12882687;23;19999;-73
2022/09/02 05:29:22;;;;;;;;;;;;;;;13.97;75.50;101306.16;12869085;23;19962;-73
2022/09/02 05:34:25;;;;;;;;;;;;;;;14.07;75.46;101310.41;12869754;23;19931;-71
2022/09/02 05:39:29;;;;;;;;;;;;;;;14.14;75.47;101317.31;12869629;23;19995;-70
2022/09/02 05:44:35;;;;;;;;;;;;;;;14.15;75.43;101314.69;12868778;23;19935;-73
2022/09/02 05:49:39;;;;;;;;;;;;;;;14.26;75.42;101319.84;12882644;23;19984;-74
2022/09/02 05:54:42;;;;;;;;;;;;;;;14.38;75.76;101319.72;12868621;23;19919;-72
2022/09/02 05:59:47;;;;;;;;;;;;;;;14.40;75.72;101316.22;12868551;23;19943;-74
2022/09/02 06:04:52;;;;;;;;;;;;;;;14.54;75.56;101305.63;12881712;23;19973;-74
2022/09/02 06:09:55;;;;;;;;;;;;;;;14.59;75.67;101304.69;12868091;23;19939;-70
2022/09/02 06:14:59;;;;;;;;;;;;;;;14.70;76.13;101309.81;12866372;23;19987;-73
2022/09/02 06:20:03;;;;;;;;;;;;;;;14.71;76.67;101315.00;12867162;23;19920;-71
2022/09/02 06:25:06;;;;;;;;;;;;;;;14.84;76.79;101321.81;12867889;23;19999;-74
2022/09/02 06:30:13;;;;;;;;;;;;;;;14.91;76.59;101325.19;12867535;23;20197;-73
2022/09/02 06:35:16;;;;;;;;;;;;;;;14.97;76.46;101310.34;12867831;23;19924;-71
2022/09/02 06:40:19;;;;;;;;;;;;;;;15.14;76.21;101311.84;12867702;23;19950;-71
2022/09/02 06:45:24;;;;;;;;;;;;;;;15.17;75.96;101324.91;12867653;23;19994;-71
2022/09/02 06:50:27;;;;;;;;;;;;;;;15.20;76.51;101320.50;12867238;23;19957;-71
2022/09/02 06:55:30;;;;;;;;;;;;;;;15.36;76.19;101321.16;12867589;23;19920;-71
2022/09/02 07:00:35;;;;;;;;;;;;;;;15.41;75.83;101328.06;12867123;23;20300;-75
2022/09/02 07:05:39;;;;;;;;;;;;;;;15.44;75.32;101325.41;12878020;23;20312;-72
2022/09/02 07:10:42;;;;;;;;;;;;;;;15.55;75.16;101331.34;12860585;23;19982;-71
2022/09/02 07:15:46;;;;;;;;;;;;;;;15.60;74.65;101324.28;12859918;23;19928;-72
2022/09/02 07:20:49;;;;;;;;;;;;;;;15.71;74.08;101325.00;12859250;23;19999;-72
2022/09/02 07:25:54;;;;;;;;;;;;;;;15.79;73.46;101323.09;12859485;23;19998;-70
2022/09/02 07:30:58;;;;;;;;;;;;;;;15.83;72.87;101327.41;12859843;23;19950;-71
2022/09/02 07:36:03;;;;;;;;;;;;;;;15.92;72.17;101323.78;12859688;23;19951;-72
2022/09/02 07:41:12;;;;;;;;;;;;;;;16.01;71.85;101327.09;12874361;23;19944;-72
2022/09/02 07:46:17;;;;;;;;;;;;;;;16.08;71.44;101333.13;12859023;23;19923;-71
2022/09/02 07:51:21;;;;;;;;;;;;;;;16.16;70.81;101326.00;12859612;23;19982;-73
2022/09/02 07:56:25;;;;;;;;;;;;;;;16.20;70.62;101325.91;12833968;23;19997;-71
2022/09/02 08:01:29;;;;;;;;;;;;;;;16.23;69.60;101325.00;12859507;23;19955;-73
2022/09/02 08:06:33;;;;;;;;;;;;;;;16.37;69.30;101322.13;12859967;23;19959;-70
2022/09/02 08:11:38;;;;;;;;;;;;;;;16.53;68.13;101320.97;12859873;23;19930;-70
2022/09/02 08:16:43;;;;;;;;;;;;;;;16.50;66.93;101311.41;12861593;23;19939;-73
2022/09/02 08:21:46;;;;;;;;;;;;;;;16.55;65.70;101306.94;12859234;23;19947;-73
2022/09/02 08:26:49;;;;;;;;;;;;;;;16.68;64.48;101312.81;12861383;23;19970;-72
2022/09/02 08:31:53;;;;;;;;;;;;;;;16.75;63.74;101311.81;12860328;23;19928;-71
2022/09/02 08:36:57;;;;;;;;;;;;;;;16.80;63.32;101308.19;12860539;23;20019;-73
2022/09/02 08:42:05;;;;;;;;;;;;;;;16.88;62.91;101310.63;12858258;23;19947;-73
2022/09/02 08:47:13;;;;;;;;;;;;;;;16.91;61.92;101303.56;12875871;23;20021;-70
2022/09/02 08:52:22;;;;;;;;;;;;;;;17.06;61.36;101303.28;12858172;23;19962;-75
2022/09/02 08:57:26;;;;;;;;;;;;;;;17.19;59.42;101304.72;12875363;23;20336;-72
2022/09/02 09:02:35;;;;;;;;;;;;;;;17.41;58.60;101299.00;12857974;23;19999;-73
2022/09/02 09:07:41;;;;;;;;;;;;;;;17.59;57.78;101293.34;12875165;23;19966;-77
2022/09/02 09:12:51;;;;;;;;;;;;;;;17.73;56.21;101286.88;12875034;23;19919;-74
2022/09/02 09:17:58;;;;;;;;;;;;;;;17.97;55.64;101278.38;12875262;23;19919;-75
2022/09/02 09:23:02;;;;;;;;;;;;;;;18.13;54.29;101271.84;12875385;23;19920;-73
2022/09/02 09:28:05;;;;;;;;;;;;;;;18.39;53.34;101273.75;12857857;23;19920;-72
2022/09/02 09:33:14;;;;;;;;;;;;;;;18.61;52.00;101269.66;12860647;23;20003;-72
2022/09/02 09:38:28;;;;;;;;;;;;;;;18.89;52.45;101264.44;12878789;23;20331;-74
2022/09/02 09:43:33;;;;;;;;;;;;;;;19.22;52.22;101258.16;12877670;23;19963;-75
2022/09/02 09:48:48;;;;;;;;;;;;;;;20.51;50.19;101255.56;12835321;23;19952;-75
2022/09/02 09:53:51;;;;;;;;;;;;;;;24.53;41.50;101237.31;12864493;23;19974;-72
2022/09/02 09:58:54;;;;;;;;;;;;;;;22.84;43.80;101240.53;12869142;23;19974;-75
2022/09/02 10:04:02;;;;;;;;;;;;;;;22.48;44.48;101234.25;12868254;23;19927;-73
2022/09/02 10:09:24;;;;;;;;;;;;;;;22.62;44.20;101229.19;12885162;23;19946;-74
2022/09/02 10:14:33;;;;;;;;;;;;;;;22.68;43.92;101238.66;12841575;23;19971;-75
2022/09/02 10:19:39;;;;;;;;;;;;;;;22.79;43.31;101225.78;12867966;23;19962;-76
2022/09/02 10:24:50;;;;;;;;;;;;;;;22.85;42.75;101222.84;12842334;23;20298;-75
2022/09/02 10:29:57;;;;;;;;;;;;;;;23.01;42.85;101217.69;12867829;23;20355;-76
2022/09/02 10:35:09;;;;;;;;;;;;;;;23.28;42.45;101209.31;12882113;23;20035;-77
2022/09/02 10:40:14;;;;;;;;;;;;;;;23.53;40.90;101219.56;12881957;23;19920;-75
2022/09/02 10:45:23;;;;;;;;;;;;;;;23.79;40.58;101211.16;12868620;23;20379;-75
2022/09/02 10:50:34;;;;;;;;;;;;;;;23.95;39.88;101207.63;12868353;23;19947;-72
2022/09/02 10:55:44;;;;;;;;;;;;;;;24.17;39.52;101215.38;12866998;23;19923;-74
2022/09/02 11:00:50;;;;;;;;;;;;;;;24.55;38.74;101200.06;12881028;23;19923;-75
2022/09/02 11:05:56;;;;;;;;;;;;;;;24.99;38.92;101195.84;12880065;23;19951;-74
2022/09/02 11:11:03;;;;;;;;;;;;;;;25.25;37.84;101189.91;12880292;23;19920;-73
2022/09/02 11:16:14;;;;;;;;;;;;;;;25.76;37.18;101191.38;12879936;23;20094;-74
2022/09/02 11:21:26;;;;;;;;;;;;;;;25.98;36.30;101192.66;12867636;23;19935;-74
2022/09/02 11:26:37;;;;;;;;;;;;;;;26.08;35.55;101192.97;12878843;23;19951;-75
2022/09/02 11:31:42;;;;;;;;;;;;;;;26.69;34.75;101185.59;12878450;23;19954;-75
2022/09/02 11:36:48;;;;;;;;;;;;;;;27.13;34.58;101175.56;12879070;23;20223;-75
2022/09/02 11:41:59;;;;;;;;;;;;;;;27.59;34.20;101168.09;12878345;23;19978;-75
2022/09/02 11:47:08;;;;;;;;;;;;;;;27.96;33.21;101166.44;12878075;23;19948;-76
2022/09/02 11:52:32;;;;;;;;;;;;;;;28.35;32.65;101155.66;12866758;23;19950;-76
2022/09/02 11:57:40;;;;;;;;;;;;;;;28.88;32.41;101150.00;12857941;23;19943;-73
2022/09/02 12:02:45;;;;;;;;;;;;;;;29.18;31.73;101155.75;12875682;23;20001;-75
2022/09/02 12:07:49;;;;;;;;;;;;;;;28.98;30.75;101150.16;12866421;23;19923;-76
2022/09/02 12:13:03;;;;;;;;;;;;;;;29.04;29.86;101139.88;12865887;23;19995;-75
2022/09/02 12:18:12;;;;;;;;;;;;;;;29.29;29.34;101138.91;12875004;23;20224;-74
2022/09/02 12:23:30;;;;;;;;;;;;;;;29.65;29.89;101128.06;12865620;23;20224;-74
2022/09/02 12:28:35;;;;;;;;;;;;;;;30.10;29.34;101127.22;12866873;23;19955;-78
2022/09/02 12:33:39;;;;;;;;;;;;;;;31.22;27.67;101118.06;12865474;23;19990;-75
2022/09/02 12:38:42;;;;;;;;;;;;;;;33.37;25.96;101097.91;12860363;23;19920;-73
2022/09/02 12:43:52;;;;;;;;;;;;;;;34.41;25.50;101077.88;12858312;23;19995;-73
2022/09/02 12:48:59;;;;;;;;;;;;;;;34.84;25.36;101074.53;12859772;23;19924;-70
2022/09/02 12:54:04;;;;;;;;;;;;;;;34.77;25.14;101090.50;12871619;23;19991;-73
2022/09/02 12:59:08;;;;;;;;;;;;;;;34.07;26.20;101092.97;12866190;23;20270;-66
2022/09/02 13:04:25;;;;;;;;;;;;;;;32.85;27.00;101104.50;12865446;23;19954;-70
2022/09/02 13:09:47;;;;;;;;;;;;;;;32.00;27.42;101107.75;12876658;23;19956;-70
2022/09/02 13:15:00;;;;;;;;;;;;;;;29.15;29.72;101117.69;12869351;23;19940;-68
2022/09/02 13:20:19;;;;;;;;;;;;;;;27.19;30.89;101121.88;12875386;23;19963;-69
2022/09/02 13:25:35;;;;;;;;;;;;;;;27.13;31.14;101114.25;12780965;23;20311;-66
2022/09/02 13:30:52;;;;;;;;;;;;;;;26.88;31.85;101110.66;12873329;23;20285;-68
2022/09/02 13:35:57;;;;;;;;;;;;;;;27.83;31.01;101104.16;12867823;23;19931;-67
2022/09/02 13:41:01;;;;;;;;;;;;;;;27.82;31.27;101089.13;12868924;23;19943;-64
2022/09/02 13:46:05;;;;;;;;;;;;;;;27.61;31.35;101085.28;12868440;23;19930;-68
2022/09/02 13:51:11;;;;;;;;;;;;;;;27.29;31.37;101080.31;12868539;23;19976;-71
2022/09/02 13:56:16;;;;;;;;;;;;;;;26.77;31.46;101081.19;12872601;23;19944;-65
2022/09/02 14:01:22;;;;;;;;;;;;;;;26.34;32.29;101074.22;12868333;23;20323;-66
2022/09/02 14:06:27;;;;;;;;;;;;;;;26.26;32.81;101074.72;12872043;23;19920;-65
2022/09/02 14:11:34;;;;;;;;;;;;;;;25.86;33.92;101076.34;12868214;23;19987;-71
2022/09/02 14:16:39;;;;;;;;;;;;;;;25.14;35.27;101089.53;12868892;23;19960;-73
2022/09/02 14:21:46;;;;;;;;;;;;;;;24.61;36.59;101083.75;12867781;23;19955;-75
2022/09/02 14:26:50;;;;;;;;;;;;;;;24.24;36.50;101083.25;12861989;23;19928;-71
2022/09/02 14:32:09;;;;;;;;;;;;;;;24.52;36.79;101086.09;12861247;23;19931;-72
2022/09/02 14:37:18;;;;;;;;;;;;;;;24.73;36.83;101082.25;12865422;23;20268;-70
2022/09/02 14:42:21;;;;;;;;;;;;;;;24.74;36.01;101079.50;12866897;23;19932;-70
2022/09/02 14:47:26;;;;;;;;;;;;;;;24.10;36.85;101076.03;12861511;23;19924;-70
2022/09/02 14:52:32;;;;;;;;;;;;;;;23.60;37.62;101089.31;12835058;23;20271;-69
2022/09/02 14:57:37;;;;;;;;;;;;;;;23.18;38.28;101085.28;12864485;23;20028;-70
2022/09/02 15:02:43;;;;;;;;;;;;;;;22.85;39.67;101085.16;12864415;23;20009;-70
2022/09/02 15:07:46;;;;;;;;;;;;;;;22.62;39.44;101082.78;12859667;23;20295;-67
2022/09/02 15:12:50;;;;;;;;;;;;;;;22.43;40.53;101082.78;12860532;23;19920;-70
2022/09/02 15:17:55;;;;;;;;;;;;;;;22.26;40.83;101082.69;12859950;23;19943;-70
2022/09/02 15:22:58;;;;;;;;;;;;;;;22.11;41.64;101078.13;12859751;23;19994;-70
2022/09/02 15:28:02;;;;;;;;;;;;;;;22.17;41.74;101076.97;12859956;23;20002;-71
2022/09/02 15:33:07;;;;;;;;;;;;;;;22.15;41.94;101078.84;12859747;23;19948;-72
2022/09/02 15:38:18;;;;;;;;;;;;;;;22.18;41.77;101061.03;12865299;23;19995;-72
2022/09/02 15:43:21;;;;;;;;;;;;;;;22.21;42.54;101057.41;12860101;23;20339;-70
2022/09/02 15:48:26;;;;;;;;;;;;;;;22.25;43.31;101061.59;12859319;23;19920;-71
2022/09/02 15:53:29;;;;;;;;;;;;;;;22.21;43.04;101073.28;12858917;23;19955;-71
2022/09/02 15:58:32;;;;;;;;;;;;;;;22.09;42.60;101066.75;12859154;23;20011;-73
2022/09/02 16:03:37;;;;;;;;;;;;;;;21.96;42.37;101070.03;12861675;23;19955;-71
2022/09/02 16:08:40;;;;;;;;;;;;;;;21.87;42.42;101075.72;12865821;23;20216;-70
2022/09/02 16:13:43;;;;;;;;;;;;;;;21.79;43.10;101068.16;12865865;23;20307;-69
2022/09/02 16:18:51;;;;;;;;;;;;;;;21.75;43.73;101070.03;12864795;23;19951;-70
2022/09/02 16:23:54;;;;;;;;;;;;;;;21.57;43.78;101075.28;12872489;23;19982;-71
2022/09/02 16:28:58;;;;;;;;;;;;;;;21.37;43.78;101073.50;12864977;23;19951;-69
2022/09/02 16:34:04;;;;;;;;;;;;;;;21.39;43.85;101065.50;12865511;23;19947;-74
2022/09/02 16:39:09;;;;;;;;;;;;;;;21.27;43.63;101066.03;12865952;23;19920;-72
2022/09/02 16:44:14;;;;;;;;;;;;;;;21.17;43.73;101073.50;12863757;23;20271;-72
2022/09/02 16:49:19;;;;;;;;;;;;;;;21.01;44.17;101084.75;12865169;23;19920;-71
2022/09/02 16:54:23;;;;;;;;;;;;;;;20.87;44.75;101089.69;12874325;23;19977;-73
2022/09/02 16:59:33;;;;;;;;;;;;;;;20.68;45.51;101081.66;12872210;23;20326;-72
2022/09/02 17:04:38;;;;;;;;;;;;;;;20.54;46.02;101084.84;12865171;23;20227;-75
2022/09/02 17:09:41;;;;;;;;;;;;;;;20.49;46.47;101086.81;12865593;23;19920;-72
2022/09/02 17:14:44;;;;;;;;;;;;;;;20.36;47.50;101089.97;12864803;23;20556;-76
2022/09/02 17:19:48;;;;;;;;;;;;;;;20.25;47.61;101084.25;12861202;23;19927;-75
2022/09/02 17:24:51;;;;;;;;;;;;;;;20.14;47.99;101095.16;12863537;23;19944;-72
2022/09/02 17:29:56;;;;;;;;;;;;;;;20.07;48.22;101100.75;12864682;23;19976;-72
2022/09/02 17:35:01;;;;;;;;;;;;;;;19.94;48.36;101096.81;12865410;23;20334;-70
2022/09/02 17:40:05;;;;;;;;;;;;;;;19.84;49.53;101098.06;12838623;23;19978;-72
2022/09/02 17:45:09;;;;;;;;;;;;;;;19.88;50.13;101108.44;12862489;23;19920;-73
2022/09/02 17:50:13;;;;;;;;;;;;;;;19.90;49.95;101101.34;12857914;23;20197;-78
2022/09/02 17:55:19;;;;;;;;;;;;;;;19.86;50.30;101109.41;12872161;23;20006;-72
2022/09/02 18:00:25;;;;;;;;;;;;;;;19.71;51.07;101104.72;12861682;23;20014;-74
2022/09/02 18:05:31;;;;;;;;;;;;;;;19.64;51.71;101111.94;12873082;23;20003;-72
2022/09/02 18:10:36;;;;;;;;;;;;;;;19.55;52.39;101109.66;12873333;23;19998;-71
2022/09/02 18:15:45;;;;;;;;;;;;;;;19.52;52.27;101115.00;12860697;23;19955;-72
2022/09/02 18:20:53;;;;;;;;;;;;;;;19.39;52.61;101114.59;12873022;23;20003;-75
2022/09/02 18:26:02;;;;;;;;;;;;;;;19.08;53.18;101121.75;12872528;23;20014;-69
2022/09/02 18:31:12;;;;;;;;;;;;;;;18.97;53.80;101123.84;12871375;23;20258;-72
2022/09/02 18:36:25;;;;;;;;;;;;;;;18.79;54.81;101121.84;12874130;23;19995;-69
2022/09/02 18:41:38;;;;;;;;;;;;;;;18.76;54.86;101127.16;12860089;23;19947;-68
2022/09/02 18:46:45;;;;;;;;;;;;;;;18.64;55.27;101122.28;12870398;23;19958;-66
2022/09/02 18:51:52;;;;;;;;;;;;;;;18.57;56.13;101128.63;12872156;23;19930;-68
2022/09/02 18:56:57;;;;;;;;;;;;;;;18.60;56.09;101132.94;12871625;23;20317;-69
2022/09/02 19:02:04;;;;;;;;;;;;;;;18.47;56.56;101137.72;12861331;23;19951;-72
2022/09/02 19:12:32;;;;;;;;;;;;;;;18.40;56.58;101129.16;12871888;23;20055;-71
2022/09/02 19:17:35;;;;;;;;;;;;;;;18.35;57.25;101133.66;12859784;23;19966;-71
2022/09/02 19:22:42;;;;;;;;;;;;;;;18.13;58.09;101127.31;12860501;23;19931;-69
2022/09/02 19:27:45;;;;;;;;;;;;;;;18.06;58.69;101125.75;12867972;23;19931;-68
2022/09/02 19:32:49;;;;;;;;;;;;;;;18.00;58.61;101133.78;12859292;23;19924;-70
2022/09/02 19:37:54;;;;;;;;;;;;;;;17.75;59.85;101145.88;12858965;23;19919;-68
2022/09/02 19:42:57;;;;;;;;;;;;;;;17.88;58.55;101149.03;12859120;23;19986;-68
2022/09/02 19:48:00;;;;;;;;;;;;;;;17.91;58.14;101149.81;12859199;23;19959;-66
2022/09/02 19:53:16;;;;;;;;;;;;;;;17.85;58.73;101150.00;12873455;23;19947;-67
2022/09/02 19:58:19;;;;;;;;;;;;;;;17.77;59.01;101151.09;12873945;23;19977;-68
2022/09/02 20:03:22;;;;;;;;;;;;;;;17.69;58.99;101153.06;12858675;23;19999;-72
2022/09/02 20:08:29;;;;;;;;;;;;;;;17.73;58.63;101147.69;12858891;23;20007;-69
2022/09/02 20:13:33;;;;;;;;;;;;;;;17.75;57.54;101152.91;12859698;23;19927;-69
2022/09/02 20:18:47;;;;;;;;;;;;;;;17.59;57.58;101156.81;12859263;23;20331;-71
2022/09/02 20:23:52;;;;;;;;;;;;;;;17.58;57.85;101145.47;12874956;23;19997;-75
2022/09/02 20:29:06;;;;;;;;;;;;;;;17.59;58.01;101157.69;12864393;23;20011;-73
2022/09/02 20:34:16;;;;;;;;;;;;;;;17.64;57.53;101144.44;12876739;23;19920;-75
2022/09/02 20:39:35;;;;;;;;;;;;;;;17.54;57.82;101149.06;12875114;23;19924;-75
2022/09/02 20:44:48;;;;;;;;;;;;;;;17.59;57.41;101152.44;12874102;23;19958;-75
2022/09/02 20:49:57;;;;;;;;;;;;;;;17.42;58.38;101151.09;12874138;23;20350;-75
2022/09/02 20:55:06;;;;;;;;;;;;;;;17.32;58.34;101169.69;12874161;23;19995;-74
2022/09/02 21:00:10;;;;;;;;;;;;;;;17.25;58.36;101172.53;12874332;23;19990;-72
2022/09/02 21:05:16;;;;;;;;;;;;;;;17.24;59.03;101173.41;12858356;23;20014;-74
2022/09/02 21:10:28;;;;;;;;;;;;;;;17.20;59.45;101175.25;12873570;23;19938;-75
2022/09/02 21:15:33;;;;;;;;;;;;;;;17.17;59.35;101179.75;12857799;23;19974;-75
2022/09/02 21:20:42;;;;;;;;;;;;;;;17.13;59.38;101172.81;12861176;23;19983;-76
2022/09/02 21:25:51;;;;;;;;;;;;;;;17.09;58.98;101173.78;12880414;23;19939;-73
2022/09/02 21:30:57;;;;;;;;;;;;;;;17.01;59.11;101176.63;12884394;23;20149;-71
2022/09/02 21:36:01;;;;;;;;;;;;;;;16.96;58.63;101177.59;12868770;23;19940;-73
2022/09/02 21:41:17;;;;;;;;;;;;;;;16.89;58.97;101173.41;12868993;23;20349;-73
2022/09/02 21:46:26;;;;;;;;;;;;;;;16.91;59.16;101171.63;12868915;23;19924;-74
2022/09/02 21:51:35;;;;;;;;;;;;;;;16.97;57.84;101171.44;12883277;23;20006;-74
2022/09/02 21:56:48;;;;;;;;;;;;;;;16.89;58.01;101171.66;12868698;23;20302;-72
2022/09/02 22:01:56;;;;;;;;;;;;;;;16.68;58.79;101164.25;12882790;23;19920;-71
2022/09/02 22:07:05;;;;;;;;;;;;;;;16.69;58.71;101168.59;12868806;23;19939;-73
2022/09/02 22:12:13;;;;;;;;;;;;;;;16.67;58.85;101164.28;12881557;23;19962;-74
2022/09/02 22:17:23;;;;;;;;;;;;;;;16.38;60.06;101174.47;12869082;23;19991;-72
2022/09/02 22:22:28;;;;;;;;;;;;;;;16.33;60.10;101174.59;12868210;23;19955;-73
2022/09/02 22:27:34;;;;;;;;;;;;;;;16.32;60.06;101174.63;12867639;23;19958;-74
2022/09/02 22:32:39;;;;;;;;;;;;;;;16.25;60.27;101173.88;12881106;23;20019;-73
2022/09/02 22:37:47;;;;;;;;;;;;;;;16.18;60.61;101165.28;12867287;23;19998;-73
2022/09/02 22:42:53;;;;;;;;;;;;;;;16.14;60.81;101176.72;12867587;23;20196;-72
2022/09/02 22:53:20;;;;;;;;;;;;;;;16.00;60.83;101173.50;12868408;23;19966;-73
2022/09/02 22:58:34;;;;;;;;;;;;;;;15.94;61.41;101178.88;12867684;23;19990;-74
2022/09/02 23:03:39;;;;;;;;;;;;;;;16.10;60.21;101175.03;12879564;23;19999;-71
2022/09/02 23:08:44;;;;;;;;;;;;;;;15.88;60.78;101184.19;12879247;23;19951;-72
2022/09/02 23:13:56;;;;;;;;;;;;;;;15.77;61.85;101180.91;12861447;23;20533;-70
2022/09/02 23:19:06;;;;;;;;;;;;;;;15.59;63.13;101180.38;12860259;23;19920;-67
2022/09/02 23:24:14;;;;;;;;;;;;;;;15.49;64.08;101181.44;12861071;23;19936;-67
2022/09/02 23:29:25;;;;;;;;;;;;;;;15.45;63.58;101198.94;12862303;23;20054;-70
2022/09/02 23:34:36;;;;;;;;;;;;;;;15.43;63.60;101192.84;12871179;23;19999;-68
2022/09/02 23:39:47;;;;;;;;;;;;;;;15.41;63.51;101189.38;12870781;23;20015;-67
2022/09/02 23:45:00;;;;;;;;;;;;;;;15.31;64.05;101185.16;12870936;23;19940;-68
2022/09/02 23:50:12;;;;;;;;;;;;;;;15.23;64.41;101184.44;12869502;23;19956;-68
2022/09/02 23:55:20;;;;;;;;;;;;;;;15.00;65.34;101179.56;12869775;23;19994;-65
